Time;durP1;ratioP1;P1;durP2;ratioP2;P2;SDS_P1;SDS_P2;PMS_P1;PMS_P2;Temp;Humidity;BMP_temperature;BMP_pressure;BME280_temperature;BME280_humidity;BME280_pressure;Samples;Min_cycle;Max_cycle;Signal;HPM_P1;HPM_P2
2023/06/16 00:00:27;;;;;;;6.75;5.20;;;12.30;67.10;;;;;;2092554;28;20219;-64
2023/06/16 00:01:31;;;;;;;3.35;3.05;;;12.30;66.40;;;;;;2104353;28;20217;-65
2023/06/16 00:02:33;;;;;;;3.80;3.30;;;12.30;66.40;;;;;;2104049;28;20224;-65
2023/06/16 00:03:34;;;;;;;3.80;3.38;;;12.30;66.10;;;;;;2094499;28;20220;-64
2023/06/16 00:04:35;;;;;;;3.65;3.35;;;12.20;65.80;;;;;;2104136;28;20399;-64
2023/06/16 00:05:36;;;;;;;3.67;3.10;;;12.20;65.80;;;;;;2104611;28;20219;-63
2023/06/16 00:06:37;;;;;;;3.50;3.20;;;12.30;65.40;;;;;;2102114;28;20268;-64
2023/06/16 00:07:38;;;;;;;7.00;3.70;;;12.20;65.70;;;;;;2093778;28;20645;-64
2023/06/16 00:08:54;;;;;;;4.30;2.88;;;12.20;65.60;;;;;;2103850;28;20809;-64
2023/06/16 00:09:55;;;;;;;4.57;3.55;;;12.20;66.70;;;;;;2103169;28;20214;-64
2023/06/16 00:10:56;;;;;;;4.60;3.60;;;12.10;65.50;;;;;;2104501;28;20230;-64
2023/06/16 00:11:58;;;;;;;4.28;3.50;;;12.20;65.80;;;;;;2102185;28;20331;-64
2023/06/16 00:12:58;;;;;;;4.82;4.10;;;12.20;65.80;;;;;;2102514;28;20222;-64
2023/06/16 00:13:59;;;;;;;3.80;3.30;;;12.10;67.30;;;;;;2104329;28;20273;-64
2023/06/16 00:15:00;;;;;;;3.80;3.40;;;12.10;65.90;;;;;;2110173;28;20245;-64
2023/06/16 00:16:01;;;;;;;5.53;3.57;;;12.30;66.80;;;;;;2103668;28;20193;-64
2023/06/16 00:17:03;;;;;;;4.70;3.70;;;12.30;65.40;;;;;;2102751;28;20197;-64
2023/06/16 00:18:04;;;;;;;3.67;3.38;;;12.40;65.10;;;;;;2094060;28;20294;-64
2023/06/16 00:19:05;;;;;;;4.23;3.83;;;12.40;65.10;;;;;;2088093;28;20177;-64
2023/06/16 00:20:08;;;;;;;4.03;3.57;;;12.40;64.90;;;;;;2105759;28;20179;-64
2023/06/16 00:21:09;;;;;;;3.95;3.47;;;12.40;64.80;;;;;;2103828;28;20283;-63
2023/06/16 00:22:10;;;;;;;3.75;3.45;;;12.40;64.70;;;;;;2105810;28;20782;-63
2023/06/16 00:23:16;;;;;;;3.88;3.45;;;12.40;64.90;;;;;;2097606;28;20199;-63
2023/06/16 00:24:17;;;;;;;4.75;3.58;;;12.30;65.10;;;;;;2107840;28;20720;-63
2023/06/16 00:25:18;;;;;;;7.27;3.70;;;12.40;65.00;;;;;;2106315;28;20329;-63
2023/06/16 00:26:19;;;;;;;4.45;3.60;;;12.30;65.20;;;;;;2103272;28;20250;-64
2023/06/16 00:27:24;;;;;;;4.10;3.70;;;12.40;65.00;;;;;;2098308;28;20310;-64
2023/06/16 00:28:24;;;;;;;4.07;3.63;;;12.40;65.00;;;;;;2089693;28;20361;-63
2023/06/16 00:29:25;;;;;;;4.30;3.70;;;12.40;64.70;;;;;;2096887;28;20216;-63
2023/06/16 00:30:26;;;;;;;4.03;3.63;;;12.40;64.80;;;;;;2096729;28;20310;-64
2023/06/16 00:31:27;;;;;;;5.77;4.10;;;12.40;64.90;;;;;;2096809;28;20246;-62
2023/06/16 00:32:27;;;;;;;4.10;3.70;;;12.40;66.50;;;;;;2101705;28;20301;-62
2023/06/16 00:33:28;;;;;;;10.20;4.10;;;12.40;65.40;;;;;;2102269;28;20271;-63
2023/06/16 00:34:29;;;;;;;5.00;4.00;;;12.40;65.60;;;;;;2102022;28;20221;-63
2023/06/16 00:35:30;;;;;;;3.77;3.37;;;12.30;66.20;;;;;;2104732;28;20313;-63
2023/06/16 00:36:30;;;;;;;4.50;4.10;;;12.30;66.50;;;;;;2096632;28;20597;-63
2023/06/16 00:37:31;;;;;;;4.10;3.60;;;12.30;66.60;;;;;;2105269;28;20222;-63
2023/06/16 00:38:33;;;;;;;3.75;3.45;;;12.20;66.60;;;;;;2104006;28;20267;-63
2023/06/16 00:39:33;;;;;;;4.00;3.60;;;12.20;66.70;;;;;;2105497;28;20215;-63
2023/06/16 00:40:34;;;;;;;4.13;3.73;;;12.20;66.80;;;;;;2088538;28;20212;-66
2023/06/16 00:41:35;;;;;;;4.60;4.03;;;12.20;66.70;;;;;;2097164;28;20317;-63
2023/06/16 00:42:36;;;;;;;5.40;3.73;;;12.20;66.80;;;;;;2096788;28;20452;-64
2023/06/16 00:43:37;;;;;;;4.20;3.80;;;12.10;66.90;;;;;;2096991;28;20244;-63
2023/06/16 00:44:38;;;;;;;4.57;3.63;;;12.10;67.30;;;;;;2105098;28;20245;-64
2023/06/16 00:45:38;;;;;;;5.18;3.42;;;12.10;67.40;;;;;;2101976;28;20237;-64
2023/06/16 00:46:40;;;;;;;4.13;3.23;;;12.10;67.50;;;;;;2103860;28;20229;-64
2023/06/16 00:47:41;;;;;;;3.80;3.42;;;12.00;67.50;;;;;;2104205;28;20222;-64
2023/06/16 00:48:42;;;;;;;4.10;3.60;;;11.90;67.70;;;;;;2094048;28;20223;-64
2023/06/16 00:49:43;;;;;;;3.87;3.43;;;11.90;68.00;;;;;;2085800;28;20228;-63
2023/06/16 00:50:45;;;;;;;3.83;3.43;;;11.90;68.20;;;;;;2093536;28;20227;-64
2023/06/16 00:51:48;;;;;;;3.80;3.28;;;11.90;68.40;;;;;;2105454;28;20850;-64
2023/06/16 00:52:49;;;;;;;5.22;3.97;;;11.70;68.80;;;;;;2105372;28;20367;-64
2023/06/16 00:53:50;;;;;;;4.17;3.77;;;11.70;68.90;;;;;;2105164;28;20682;-63
2023/06/16 00:54:51;;;;;;;5.65;4.25;;;11.80;69.30;;;;;;2096405;28;20219;-64
2023/06/16 00:55:52;;;;;;;3.75;3.45;;;11.70;70.00;;;;;;2105020;28;20703;-64
2023/06/16 00:56:53;;;;;;;5.03;3.83;;;11.70;70.40;;;;;;2105740;28;20229;-64
2023/06/16 00:57:54;;;;;;;4.10;3.70;;;11.60;71.50;;;;;;2104608;28;20233;-64
2023/06/16 00:58:55;;;;;;;4.03;3.63;;;11.60;71.70;;;;;;2104791;28;20230;-67
2023/06/16 00:59:56;;;;;;;4.28;3.80;;;11.60;70.60;;;;;;2095581;28;20307;-65
2023/06/16 01:00:57;;;;;;;4.10;3.50;;;11.50;70.20;;;;;;2096778;28;20233;-64
2023/06/16 01:01:58;;;;;;;3.80;3.40;;;11.60;70.00;;;;;;2096816;28;20227;-64
2023/06/16 01:02:59;;;;;;;8.37;3.80;;;11.60;69.80;;;;;;2105655;28;20245;-67
2023/06/16 01:03:59;;;;;;;4.17;3.53;;;11.60;69.90;;;;;;2107400;28;20189;-64
2023/06/16 01:05:02;;;;;;;3.73;3.40;;;11.60;69.60;;;;;;2104289;28;20594;-64
2023/06/16 01:06:15;;;;;;;4.10;3.50;;;11.60;69.60;;;;;;2096544;28;20202;-63
2023/06/16 01:07:43;;;;;;;4.68;3.55;;;11.60;69.90;;;;;;2091686;28;20175;-64
2023/06/16 01:09:00;;;;;;;4.20;3.70;;;11.60;69.60;;;;;;2105106;28;20222;-65
2023/06/16 01:10:23;;;;;;;4.43;3.60;;;11.50;69.70;;;;;;2109233;28;20704;-65
2023/06/16 01:11:43;;;;;;;3.78;3.35;;;11.50;70.20;;;;;;2109253;28;20232;-64
2023/06/16 01:13:07;;;;;;;3.90;3.50;;;11.50;70.40;;;;;;2102918;28;20245;-64
2023/06/16 01:14:28;;;;;;;4.28;3.72;;;11.50;70.80;;;;;;2100399;28;20223;-64
2023/06/16 01:15:31;;;;;;;5.95;3.42;;;11.40;70.70;;;;;;2099469;28;20230;-64
2023/06/16 01:16:32;;;;;;;4.05;3.67;;;11.40;71.10;;;;;;2080362;28;20317;-65
2023/06/16 01:17:44;;;;;;;4.53;3.58;;;11.30;71.20;;;;;;2082163;28;20236;-65
2023/06/16 01:18:48;;;;;;;3.72;3.35;;;11.40;71.00;;;;;;2108453;28;20243;-64
2023/06/16 01:20:07;;;;;;;5.40;3.70;;;11.40;70.80;;;;;;2092919;28;20227;-65
2023/06/16 01:21:37;;;;;;;3.95;3.55;;;11.50;70.70;;;;;;2101349;28;20227;-64
2023/06/16 01:23:09;;;;;;;4.47;3.08;;;11.50;70.90;;;;;;2101308;28;20233;-65
2023/06/16 01:24:23;;;;;;;5.05;3.33;;;11.40;71.10;;;;;;2111155;28;20218;-64
2023/06/16 01:25:28;;;;;;;4.15;3.47;;;11.40;71.20;;;;;;2102267;28;20233;-63
2023/06/16 01:26:36;;;;;;;4.25;3.60;;;11.40;71.20;;;;;;2090515;28;20273;-65
2023/06/16 01:27:47;;;;;;;5.90;4.10;;;11.40;71.00;;;;;;2094582;28;20264;-65
2023/06/16 01:28:49;;;;;;;5.47;3.80;;;11.40;70.90;;;;;;2095163;28;20340;-65
2023/06/16 01:29:51;;;;;;;4.28;3.60;;;11.40;71.10;;;;;;2097073;28;20235;-63
2023/06/16 01:30:53;;;;;;;5.22;3.60;;;11.50;70.70;;;;;;2088809;28;20284;-64
2023/06/16 01:31:59;;;;;;;4.63;4.10;;;11.50;70.50;;;;;;2078768;28;20321;-64
2023/06/16 01:33:01;;;;;;;5.15;3.35;;;11.50;70.30;;;;;;2095351;28;20302;-63
2023/06/16 01:34:03;;;;;;;4.72;3.63;;;11.50;70.40;;;;;;2105354;28;20185;-64
2023/06/16 01:35:04;;;;;;;4.47;3.85;;;11.50;70.50;;;;;;2092763;28;20240;-64
2023/06/16 01:36:07;;;;;;;4.60;3.67;;;11.50;70.50;;;;;;2089095;28;20199;-64
2023/06/16 01:37:08;;;;;;;3.72;3.40;;;11.50;70.70;;;;;;2080095;28;20702;-64
2023/06/16 01:38:09;;;;;;;3.78;3.28;;;11.60;70.60;;;;;;2080441;28;20208;-64
2023/06/16 01:39:13;;;;;;;4.47;3.70;;;11.50;70.60;;;;;;2087863;28;20183;-64
2023/06/16 01:40:15;;;;;;;4.13;3.70;;;11.50;70.60;;;;;;2087771;28;20670;-64
2023/06/16 01:41:18;;;;;;;3.72;3.40;;;11.50;70.80;;;;;;2079751;28;20555;-64
2023/06/16 01:42:19;;;;;;;5.32;3.70;;;11.50;70.80;;;;;;2088500;28;20231;-65
2023/06/16 01:43:22;;;;;;;5.03;3.60;;;11.60;70.70;;;;;;2096388;28;20701;-65
2023/06/16 01:44:23;;;;;;;4.32;3.92;;;11.60;70.60;;;;;;2097097;28;20238;-67
2023/06/16 01:45:25;;;;;;;5.80;3.90;;;11.60;71.00;;;;;;2094366;28;20333;-63
2023/06/16 01:46:26;;;;;;;5.68;3.85;;;11.50;71.20;;;;;;2095979;28;20838;-63
2023/06/16 01:47:29;;;;;;;4.65;4.13;;;11.40;71.20;;;;;;2099404;28;20244;-64
2023/06/16 01:48:30;;;;;;;4.90;3.83;;;11.40;71.50;;;;;;2101856;28;20223;-64
2023/06/16 01:49:32;;;;;;;3.90;3.50;;;11.40;71.50;;;;;;2096435;28;20215;-65
2023/06/16 01:50:34;;;;;;;4.68;3.60;;;11.40;71.60;;;;;;2088631;28;20235;-65
2023/06/16 01:51:35;;;;;;;4.10;3.70;;;11.40;71.80;;;;;;2095554;28;20300;-64
2023/06/16 01:52:36;;;;;;;4.07;3.67;;;11.40;71.90;;;;;;2104544;28;20256;-64
2023/06/16 01:53:36;;;;;;;4.80;3.87;;;11.40;71.90;;;;;;2104357;28;20238;-64
2023/06/16 01:54:37;;;;;;;5.47;3.63;;;11.40;71.80;;;;;;2102569;28;20242;-65
2023/06/16 01:55:38;;;;;;;4.83;3.70;;;11.30;72.20;;;;;;2101441;28;20316;-64
2023/06/16 01:56:38;;;;;;;4.60;3.97;;;11.30;72.20;;;;;;2101825;28;20316;-65
2023/06/16 01:57:40;;;;;;;5.23;3.83;;;11.30;72.40;;;;;;2105037;28;20221;-65
2023/06/16 01:58:41;;;;;;;5.85;3.78;;;11.30;72.70;;;;;;2094984;28;20229;-64
2023/06/16 01:59:44;;;;;;;5.25;4.05;;;11.30;73.10;;;;;;2086216;28;20220;-64
2023/06/16 02:01:09;;;;;;;4.03;3.63;;;11.20;73.30;;;;;;2093588;28;20234;-65
2023/06/16 02:02:16;;;;;;;4.78;3.65;;;11.30;73.50;;;;;;2099802;28;20221;-64
2023/06/16 02:03:26;;;;;;;5.63;3.63;;;11.20;73.50;;;;;;2086922;28;20191;-65
2023/06/16 02:04:32;;;;;;;5.28;4.10;;;11.20;73.80;;;;;;2093440;28;20250;-65
2023/06/16 02:05:35;;;;;;;5.38;3.90;;;11.10;73.70;;;;;;2094968;28;20260;-65
2023/06/16 02:06:43;;;;;;;5.82;4.30;;;11.10;73.80;;;;;;2097142;28;20224;-63
2023/06/16 02:07:49;;;;;;;4.20;3.75;;;11.10;73.60;;;;;;2093295;28;20226;-65
2023/06/16 02:08:53;;;;;;;3.80;3.50;;;11.10;73.70;;;;;;2094803;28;20644;-65
2023/06/16 02:09:55;;;;;;;4.72;4.07;;;11.10;74.10;;;;;;2095940;28;20230;-65
2023/06/16 02:10:56;;;;;;;4.47;3.83;;;11.00;74.00;;;;;;2087856;28;20227;-64
2023/06/16 02:11:57;;;;;;;5.43;3.90;;;11.00;74.50;;;;;;2087641;28;20631;-67
2023/06/16 02:12:58;;;;;;;4.40;4.00;;;10.90;74.60;;;;;;2096322;28;20224;-63
2023/06/16 02:14:01;;;;;;;5.57;4.27;;;10.90;74.50;;;;;;2103119;28;20237;-66
2023/06/16 02:15:03;;;;;;;4.50;4.10;;;10.90;75.10;;;;;;2103673;28;20423;-64
2023/06/16 02:16:05;;;;;;;5.10;3.90;;;10.80;75.50;;;;;;2104278;28;20546;-64
2023/06/16 02:17:09;;;;;;;5.72;4.20;;;10.80;75.30;;;;;;2104022;28;20593;-63
2023/06/16 02:18:11;;;;;;;5.10;4.10;;;10.80;76.50;;;;;;2096743;28;20547;-65
2023/06/16 02:19:12;;;;;;;4.55;4.15;;;10.70;76.50;;;;;;2084629;28;20186;-63
2023/06/16 02:20:13;;;;;;;6.10;4.50;;;10.80;76.00;;;;;;2090676;28;20177;-65
2023/06/16 02:21:14;;;;;;;5.05;3.95;;;10.80;75.80;;;;;;2086352;28;20688;-65
2023/06/16 02:22:15;;;;;;;4.53;3.95;;;10.80;75.40;;;;;;2085657;28;20202;-64
2023/06/16 02:23:16;;;;;;;4.80;3.87;;;10.80;75.50;;;;;;2090422;28;20195;-65
2023/06/16 02:24:18;;;;;;;4.80;4.30;;;10.80;75.30;;;;;;2099749;28;20637;-65
2023/06/16 02:25:19;;;;;;;5.50;4.40;;;10.80;75.30;;;;;;2109600;28;20260;-64
2023/06/16 02:26:21;;;;;;;6.32;4.20;;;10.80;75.10;;;;;;2104390;28;20624;-64
2023/06/16 02:27:22;;;;;;;4.30;3.80;;;10.90;74.80;;;;;;2101199;28;20719;-64
2023/06/16 02:28:22;;;;;;;7.93;4.00;;;10.90;74.50;;;;;;2111768;27;20323;-64
2023/06/16 02:29:23;;;;;;;4.10;3.70;;;11.00;74.60;;;;;;2102218;28;20241;-62
2023/06/16 02:30:24;;;;;;;5.93;4.40;;;10.90;74.40;;;;;;2102791;28;20239;-65
2023/06/16 02:31:25;;;;;;;5.60;4.22;;;11.00;74.80;;;;;;2104779;28;20217;-65
2023/06/16 02:32:26;;;;;;;4.55;4.13;;;11.00;74.80;;;;;;2101378;28;20216;-63
2023/06/16 02:33:27;;;;;;;5.73;4.03;;;11.00;74.60;;;;;;2109021;28;20218;-64
2023/06/16 02:34:28;;;;;;;4.67;3.70;;;11.00;74.40;;;;;;2103170;28;20295;-65
2023/06/16 02:35:29;;;;;;;7.65;5.35;;;11.10;74.60;;;;;;2104443;28;20313;-65
2023/06/16 02:36:29;;;;;;;4.47;4.00;;;11.00;74.50;;;;;;2112996;28;20221;-65
2023/06/16 02:37:30;;;;;;;4.83;4.33;;;11.10;74.60;;;;;;2092413;28;20250;-65
2023/06/16 02:38:31;;;;;;;4.73;4.13;;;11.00;74.70;;;;;;2092715;28;20293;-65
2023/06/16 02:39:32;;;;;;;5.37;4.27;;;10.90;75.10;;;;;;2100029;28;20611;-65
2023/06/16 02:40:33;;;;;;;5.33;4.20;;;10.90;75.50;;;;;;2096041;28;20242;-65
2023/06/16 02:41:34;;;;;;;4.05;3.65;;;10.90;75.80;;;;;;2088317;28;20219;-65
2023/06/16 02:42:35;;;;;;;5.23;4.00;;;10.90;75.60;;;;;;2087698;28;20251;-64
2023/06/16 02:43:36;;;;;;;5.73;4.47;;;10.90;75.40;;;;;;2087740;28;20472;-65
2023/06/16 02:44:36;;;;;;;5.30;4.80;;;11.00;75.50;;;;;;2095550;28;20756;-64
2023/06/16 02:45:38;;;;;;;4.67;4.17;;;11.00;75.20;;;;;;2096026;28;20234;-65
2023/06/16 02:46:38;;;;;;;5.07;4.30;;;11.00;75.10;;;;;;2100773;28;20698;-65
2023/06/16 02:47:40;;;;;;;4.57;3.67;;;11.10;74.80;;;;;;2102567;28;20221;-65
2023/06/16 02:48:41;;;;;;;5.30;4.38;;;11.00;74.40;;;;;;2101731;28;20230;-64
2023/06/16 02:49:42;;;;;;;4.37;3.97;;;11.10;74.40;;;;;;2104672;28;21002;-65
2023/06/16 02:50:43;;;;;;;4.88;3.90;;;11.10;74.10;;;;;;2105197;28;20628;-65
2023/06/16 02:51:44;;;;;;;4.70;3.93;;;11.00;73.90;;;;;;2104951;28;20224;-65
2023/06/16 02:52:44;;;;;;;4.70;4.07;;;11.00;74.00;;;;;;2104427;28;20256;-65
2023/06/16 02:53:46;;;;;;;3.93;3.50;;;11.00;74.40;;;;;;2087202;28;20771;-65
2023/06/16 02:54:46;;;;;;;6.82;4.38;;;11.00;74.50;;;;;;2095791;28;20226;-65
2023/06/16 02:55:47;;;;;;;5.47;4.40;;;10.90;75.00;;;;;;2094120;28;20226;-66
2023/06/16 02:56:48;;;;;;;5.93;3.70;;;10.90;75.00;;;;;;2092102;28;20237;-65
2023/06/16 02:57:48;;;;;;;6.17;4.27;;;10.90;74.80;;;;;;2100181;28;20215;-65
2023/06/16 02:58:49;;;;;;;6.20;4.40;;;11.00;74.80;;;;;;2104471;28;20218;-65
2023/06/16 02:59:51;;;;;;;4.80;4.17;;;11.00;74.60;;;;;;2102539;28;20706;-65
2023/06/16 03:00:52;;;;;;;4.97;4.30;;;11.00;74.50;;;;;;2101707;28;20726;-65
2023/06/16 03:01:52;;;;;;;5.80;4.50;;;10.90;74.60;;;;;;2101555;28;20310;-65
2023/06/16 03:02:53;;;;;;;4.20;3.80;;;10.90;74.60;;;;;;2100509;28;20708;-64
2023/06/16 03:03:55;;;;;;;4.20;3.70;;;10.80;74.80;;;;;;2103343;28;20236;-65
2023/06/16 03:04:55;;;;;;;5.30;3.90;;;10.80;75.10;;;;;;2094756;28;20234;-64
2023/06/16 03:05:58;;;;;;;4.90;4.10;;;10.80;75.10;;;;;;2102186;28;20713;-65
2023/06/16 03:07:02;;;;;;;5.10;4.10;;;10.90;75.60;;;;;;2100589;28;20218;-65
2023/06/16 03:08:04;;;;;;;4.80;4.15;;;10.80;75.50;;;;;;2100976;28;20230;-64
2023/06/16 03:09:06;;;;;;;4.75;3.58;;;10.90;75.40;;;;;;2104600;28;20193;-63
2023/06/16 03:10:07;;;;;;;5.40;4.35;;;10.80;75.40;;;;;;2103432;28;20197;-65
2023/06/16 03:11:08;;;;;;;4.82;4.22;;;10.90;76.60;;;;;;2104919;28;20226;-65
2023/06/16 03:12:10;;;;;;;4.63;4.03;;;10.90;75.60;;;;;;2092960;28;20193;-65
2023/06/16 03:13:10;;;;;;;4.22;3.55;;;10.80;75.70;;;;;;2103800;28;20205;-65
2023/06/16 03:14:11;;;;;;;5.63;3.70;;;10.80;76.00;;;;;;2100791;28;20618;-66
2023/06/16 03:15:14;;;;;;;6.57;3.95;;;10.80;76.20;;;;;;2099955;28;20648;-65
2023/06/16 03:16:16;;;;;;;4.80;3.97;;;10.80;76.10;;;;;;2095655;28;20210;-65
2023/06/16 03:17:20;;;;;;;4.75;4.03;;;10.80;76.20;;;;;;2087738;28;20184;-64
2023/06/16 03:18:21;;;;;;;5.40;4.30;;;10.70;76.30;;;;;;2093072;28;20235;-65
2023/06/16 03:19:21;;;;;;;4.23;3.83;;;10.70;76.40;;;;;;2088137;28;20751;-65
2023/06/16 03:20:23;;;;;;;4.88;4.35;;;10.70;76.50;;;;;;2095660;28;20308;-65
2023/06/16 03:21:24;;;;;;;5.67;4.20;;;10.80;76.70;;;;;;2100864;28;20366;-64
2023/06/16 03:22:25;;;;;;;5.85;4.13;;;10.90;76.40;;;;;;2103504;28;20218;-65
2023/06/16 03:23:27;;;;;;;4.00;3.60;;;10.90;76.10;;;;;;2102359;28;20209;-65
2023/06/16 03:24:28;;;;;;;5.03;3.88;;;10.90;76.30;;;;;;2103703;28;20314;-65
2023/06/16 03:25:35;;;;;;;5.33;3.93;;;10.80;76.30;;;;;;2104139;28;20698;-66
2023/06/16 03:26:37;;;;;;;4.30;3.90;;;10.80;76.50;;;;;;2104246;28;20221;-64
2023/06/16 03:27:40;;;;;;;5.55;3.53;;;10.90;76.20;;;;;;2095454;28;20226;-64
2023/06/16 03:28:41;;;;;;;4.38;3.97;;;10.90;76.30;;;;;;2096695;28;20223;-65
2023/06/16 03:29:42;;;;;;;3.55;3.25;;;10.90;76.60;;;;;;2104631;28;20641;-65
2023/06/16 03:30:44;;;;;;;4.93;4.05;;;11.00;76.80;;;;;;2101795;28;20231;-65
2023/06/16 03:31:44;;;;;;;5.55;3.88;;;11.00;76.40;;;;;;2096427;28;20312;-65
2023/06/16 03:32:45;;;;;;;4.53;3.80;;;11.00;76.50;;;;;;2103788;28;20256;-65
2023/06/16 03:33:46;;;;;;;4.47;3.57;;;11.10;76.20;;;;;;2104274;28;20214;-64
2023/06/16 03:34:48;;;;;;;6.40;4.30;;;11.00;75.90;;;;;;2103658;28;20300;-65
2023/06/16 03:35:49;;;;;;;4.70;3.95;;;11.10;76.00;;;;;;2093869;28;20290;-65
2023/06/16 03:36:50;;;;;;;4.37;3.70;;;11.20;75.90;;;;;;2092657;28;20241;-64
2023/06/16 03:37:51;;;;;;;4.63;4.18;;;11.10;76.00;;;;;;2102359;28;20226;-65
2023/06/16 03:38:52;;;;;;;4.30;3.80;;;11.20;75.70;;;;;;2109158;28;20221;-65
2023/06/16 03:39:53;;;;;;;4.68;3.97;;;11.10;76.10;;;;;;2111441;28;20564;-66
2023/06/16 03:40:54;;;;;;;4.60;3.73;;;11.10;76.20;;;;;;2106952;28;20241;-65
2023/06/16 03:41:55;;;;;;;5.03;3.80;;;11.20;76.30;;;;;;2095537;28;20284;-65
2023/06/16 03:42:56;;;;;;;4.63;4.13;;;11.20;76.20;;;;;;2103753;28;20750;-65
2023/06/16 03:43:56;;;;;;;4.57;3.83;;;11.30;76.00;;;;;;2102190;28;20222;-65
2023/06/16 03:44:57;;;;;;;4.70;4.07;;;11.30;75.70;;;;;;2102866;28;20380;-64
2023/06/16 03:45:59;;;;;;;6.50;4.03;;;11.40;75.80;;;;;;2103975;28;20226;-64
2023/06/16 03:46:59;;;;;;;5.25;3.92;;;11.40;75.30;;;;;;2102302;28;20257;-67
2023/06/16 03:48:00;;;;;;;4.43;3.83;;;11.40;75.20;;;;;;2103378;28;20214;-65
2023/06/16 03:49:01;;;;;;;4.90;4.10;;;11.40;74.90;;;;;;2101603;28;20220;-65
2023/06/16 03:50:03;;;;;;;4.73;4.10;;;11.40;74.90;;;;;;2103788;28;20201;-65
2023/06/16 03:51:04;;;;;;;4.45;4.05;;;11.40;75.00;;;;;;2103692;28;20249;-65
2023/06/16 03:52:07;;;;;;;4.60;4.03;;;11.40;75.20;;;;;;2100450;28;20557;-66
2023/06/16 03:53:08;;;;;;;4.82;3.83;;;11.40;75.20;;;;;;2103363;28;20322;-65
2023/06/16 03:54:11;;;;;;;4.57;3.93;;;11.40;75.00;;;;;;2103072;28;20599;-65
2023/06/16 03:55:13;;;;;;;4.47;3.80;;;11.40;75.20;;;;;;2087615;28;20183;-64
2023/06/16 03:56:16;;;;;;;3.80;3.40;;;11.50;75.00;;;;;;2096140;28;20211;-65
2023/06/16 03:57:17;;;;;;;4.20;3.80;;;11.40;75.00;;;;;;2105085;28;20194;-65
2023/06/16 03:58:18;;;;;;;5.05;4.20;;;11.50;75.50;;;;;;2105897;28;20297;-65
2023/06/16 03:59:19;;;;;;;4.40;4.00;;;11.50;75.30;;;;;;2105289;28;20222;-65
2023/06/16 04:00:20;;;;;;;4.50;4.10;;;11.50;75.60;;;;;;2105363;28;20765;-65
2023/06/16 04:01:22;;;;;;;6.80;4.18;;;11.40;76.50;;;;;;2105377;28;20222;-65
2023/06/16 04:02:23;;;;;;;4.82;4.20;;;11.40;76.50;;;;;;2103754;28;20229;-65
2023/06/16 04:03:26;;;;;;;4.40;3.97;;;11.40;76.80;;;;;;2102465;28;20297;-64
2023/06/16 04:04:26;;;;;;;3.75;3.42;;;11.50;76.00;;;;;;2105897;28;20307;-65
2023/06/16 04:05:27;;;;;;;4.53;4.00;;;11.50;76.50;;;;;;2105643;28;20215;-66
2023/06/16 04:06:28;;;;;;;5.23;3.80;;;11.50;76.00;;;;;;2105525;28;20545;-64
2023/06/16 04:07:30;;;;;;;4.50;3.90;;;11.50;75.20;;;;;;2095695;28;20219;-65
2023/06/16 04:08:30;;;;;;;5.18;4.32;;;11.70;75.70;;;;;;2095402;28;20235;-64
2023/06/16 04:09:31;;;;;;;5.33;4.13;;;11.70;76.00;;;;;;2102981;28;20219;-68
2023/06/16 04:10:32;;;;;;;4.17;3.70;;;11.80;75.10;;;;;;2097022;28;20220;-65
2023/06/16 04:11:33;;;;;;;4.50;3.95;;;11.90;73.80;;;;;;2105555;28;20218;-65
2023/06/16 04:12:34;;;;;;;3.97;3.47;;;12.00;73.50;;;;;;2105322;28;20241;-64
2023/06/16 04:13:35;;;;;;;4.50;3.70;;;12.00;72.70;;;;;;2096891;28;20762;-66
2023/06/16 04:14:36;;;;;;;4.50;3.57;;;12.10;72.10;;;;;;2103568;28;20468;-64
2023/06/16 04:15:37;;;;;;;3.80;3.33;;;12.20;71.90;;;;;;2091875;28;20246;-65
2023/06/16 04:16:40;;;;;;;3.63;3.33;;;12.30;72.20;;;;;;2109150;28;20309;-65
2023/06/16 04:17:41;;;;;;;4.68;3.42;;;12.30;71.40;;;;;;2105465;28;20624;-65
2023/06/16 04:18:47;;;;;;;3.97;3.55;;;12.40;70.80;;;;;;2097627;28;20227;-65
2023/06/16 04:19:52;;;;;;;4.50;3.60;;;12.40;70.30;;;;;;2097527;28;20709;-64
2023/06/16 04:20:52;;;;;;;4.32;3.85;;;12.50;70.10;;;;;;2098126;28;20219;-65
2023/06/16 04:21:53;;;;;;;4.57;4.07;;;12.50;70.10;;;;;;2102693;28;20219;-65
2023/06/16 04:22:54;;;;;;;4.00;3.60;;;12.60;70.00;;;;;;2100719;28;20267;-65
2023/06/16 04:23:56;;;;;;;4.13;3.73;;;12.60;70.20;;;;;;2096815;28;20228;-65
2023/06/16 04:24:57;;;;;;;3.90;3.50;;;12.50;70.50;;;;;;2102207;28;20243;-64
2023/06/16 04:25:58;;;;;;;4.47;3.93;;;12.50;71.10;;;;;;2105316;28;20229;-65
2023/06/16 04:26:59;;;;;;;4.60;3.88;;;12.40;71.20;;;;;;2096089;28;20314;-65
2023/06/16 04:28:01;;;;;;;4.40;3.77;;;12.40;71.50;;;;;;2102882;28;20202;-66
2023/06/16 04:29:03;;;;;;;4.43;3.80;;;12.40;71.50;;;;;;2094584;28;20191;-65
2023/06/16 04:30:08;;;;;;;4.95;3.65;;;12.30;72.00;;;;;;2094480;28;20223;-65
2023/06/16 04:31:09;;;;;;;4.40;3.85;;;12.40;72.40;;;;;;2110037;28;20181;-64
2023/06/16 04:32:13;;;;;;;4.90;3.85;;;12.50;72.50;;;;;;2112678;28;20178;-64
2023/06/16 04:33:14;;;;;;;4.72;3.90;;;12.50;72.10;;;;;;2096299;28;20622;-65
2023/06/16 04:34:15;;;;;;;4.73;4.13;;;12.60;71.70;;;;;;2105426;28;20183;-64
2023/06/16 04:35:16;;;;;;;4.30;3.70;;;12.50;71.70;;;;;;2104724;28;20190;-65
2023/06/16 04:36:19;;;;;;;4.38;3.97;;;12.60;71.30;;;;;;2099482;28;20203;-64
2023/06/16 04:37:20;;;;;;;4.57;4.03;;;12.50;71.10;;;;;;2102077;28;20621;-65
2023/06/16 04:38:21;;;;;;;4.73;3.77;;;12.60;70.90;;;;;;2105153;28;20231;-64
2023/06/16 04:39:22;;;;;;;4.88;3.90;;;12.60;70.80;;;;;;2104619;28;20231;-65
2023/06/16 04:40:27;;;;;;;6.93;4.27;;;12.60;70.80;;;;;;2100448;28;20790;-64
2023/06/16 04:41:27;;;;;;;5.70;3.80;;;12.60;70.70;;;;;;2095445;28;20246;-64
2023/06/16 04:42:28;;;;;;;4.77;3.70;;;12.60;70.60;;;;;;2095071;28;20246;-65
2023/06/16 04:43:29;;;;;;;6.57;4.00;;;12.60;70.70;;;;;;2094043;28;20208;-64
2023/06/16 04:44:30;;;;;;;5.37;3.40;;;12.60;70.60;;;;;;2093464;28;20697;-66
2023/06/16 04:45:31;;;;;;;7.53;3.90;;;12.50;70.70;;;;;;2092200;28;20693;-65
2023/06/16 04:46:32;;;;;;;7.07;4.23;;;12.50;70.60;;;;;;2095168;28;20276;-65
2023/06/16 04:47:34;;;;;;;10.07;3.93;;;12.50;70.60;;;;;;2099197;28;20238;-63
2023/06/16 04:48:35;;;;;;;10.80;4.07;;;12.60;71.00;;;;;;2104246;28;20227;-65
2023/06/16 04:49:35;;;;;;;13.25;4.40;;;12.60;71.20;;;;;;2103788;28;20325;-65
2023/06/16 04:50:36;;;;;;;14.50;4.10;;;12.60;72.20;;;;;;2096746;28;20223;-65
2023/06/16 04:51:37;;;;;;;18.30;5.30;;;12.60;71.00;;;;;;2103949;28;21004;-64
2023/06/16 04:52:38;;;;;;;13.03;3.80;;;12.70;71.10;;;;;;2104617;28;20226;-64
2023/06/16 04:53:39;;;;;;;8.88;4.30;;;12.60;71.20;;;;;;2104980;28;20222;-64
2023/06/16 04:54:40;;;;;;;9.63;4.40;;;12.60;71.10;;;;;;2105862;28;20226;-64
2023/06/16 04:55:41;;;;;;;6.65;4.22;;;12.60;71.00;;;;;;2104031;28;20333;-64
2023/06/16 04:56:42;;;;;;;8.27;4.13;;;12.70;71.60;;;;;;2106072;28;20223;-64
2023/06/16 04:57:44;;;;;;;5.72;3.85;;;12.70;70.80;;;;;;2103131;28;20268;-64
2023/06/16 04:58:45;;;;;;;7.28;4.10;;;12.60;70.60;;;;;;2102720;28;20934;-65
2023/06/16 04:59:46;;;;;;;7.27;3.90;;;12.60;70.40;;;;;;2105025;28;20230;-64
2023/06/16 05:00:46;;;;;;;8.82;3.97;;;12.60;70.00;;;;;;2112343;28;20719;-64
2023/06/16 05:01:47;;;;;;;7.93;3.97;;;12.60;69.70;;;;;;2108947;28;20222;-64
2023/06/16 05:02:48;;;;;;;7.77;4.07;;;12.60;70.20;;;;;;2101633;28;20226;-64
2023/06/16 05:03:50;;;;;;;4.83;3.43;;;12.50;70.00;;;;;;2104029;28;20234;-65
2023/06/16 05:04:51;;;;;;;7.10;4.00;;;12.60;70.10;;;;;;2106363;28;20230;-64
2023/06/16 05:05:52;;;;;;;5.33;4.27;;;12.50;70.20;;;;;;2105242;28;20257;-64
2023/06/16 05:06:53;;;;;;;7.63;4.17;;;12.60;70.30;;;;;;2105045;28;20281;-64
2023/06/16 05:07:53;;;;;;;6.35;4.13;;;12.70;70.10;;;;;;2096400;28;20223;-65
2023/06/16 05:08:54;;;;;;;6.33;3.80;;;12.60;70.60;;;;;;2104380;28;20218;-64
2023/06/16 05:09:55;;;;;;;8.30;3.70;;;12.60;71.00;;;;;;2095845;28;20219;-64
2023/06/16 05:10:56;;;;;;;6.00;4.20;;;12.60;71.10;;;;;;2105372;28;20314;-64
2023/06/16 05:11:56;;;;;;;4.60;3.90;;;12.50;71.00;;;;;;2113146;28;20213;-65
2023/06/16 05:13:00;;;;;;;4.93;4.17;;;12.60;71.40;;;;;;2105061;28;20226;-64
2023/06/16 05:14:01;;;;;;;6.78;3.95;;;12.60;71.40;;;;;;2096512;28;20614;-63
2023/06/16 05:15:02;;;;;;;5.57;3.93;;;12.70;71.50;;;;;;2096334;28;20247;-64
2023/06/16 05:16:03;;;;;;;3.90;3.50;;;12.70;71.00;;;;;;2087762;28;20196;-62
2023/06/16 05:17:05;;;;;;;6.65;3.90;;;12.80;71.00;;;;;;2101308;28;20207;-66
2023/06/16 05:18:05;;;;;;;5.22;4.18;;;12.80;70.60;;;;;;2105519;28;20230;-65
2023/06/16 05:19:06;;;;;;;5.87;3.97;;;12.80;70.50;;;;;;2093247;28;20200;-65
2023/06/16 05:20:08;;;;;;;5.15;3.90;;;12.80;70.20;;;;;;2100755;28;20827;-64
2023/06/16 05:21:09;;;;;;;4.00;3.60;;;12.80;69.90;;;;;;2105142;28;20193;-64
2023/06/16 05:22:12;;;;;;;5.50;3.77;;;12.90;69.40;;;;;;2096784;28;20680;-64
2023/06/16 05:23:13;;;;;;;4.30;3.90;;;12.90;69.20;;;;;;2095416;28;20680;-64
2023/06/16 05:24:13;;;;;;;4.10;3.40;;;13.00;68.80;;;;;;2088246;28;20224;-63